Arnold, Maryland
Current Conditions -  °F | °C
As of 8:54 PM on Saturday 22 Nov 2014 (Local Time) from KNAK Reporting Station
Broken Clouds Broken Clouds  
Wind Chill:   Ceiling: 12000
Heat Index:   Visibility: 10mi
Dew Point: -7°   Wind: 7mph
Humidity: 41%   Direction: 170°S
Pressure: 30.29"   Gusts: NA
Location:  39.03°N, 76.51°W
Report Text: KNAK 230154Z AUTO 17006KT 10SM BKN120 05/M07 A3029 RMK AO2 SLP258 T00501072
Loading
Personal Weather Stations






























Interactive Weather Map New forecast layout! Learn more

10-Day Weather Forecast

Advertisements
Track Severe Weather on mobile